首页
METAR-TAF:

METAR-TAF

机场 :

科威特國際機場

科威特, 科威特

纬度: 29-13N, 经度: 047-59E, 海拔: 55米

当前天气观测

该预报发布于9分钟前的13:00 UTC
风速15节,风向
温度 46°C
湿度 10%
气压 994 hPa
能見度: 3500
天空无云
(小) 浮尘

METAR: OKBK 161300Z 36015KT 3500 -DU SKC 46/07 Q0994 NOSIG

时间: 16:09 (13:09 UTC)

预报

该预报发布于2小时和24分钟前的10:45 UTC
预报有效从16日的 12点(UTC)到 17日的 18点(UTC)
风速15节,风向北转西北,有时为25节阵风
能見度: 7000
短暂存在
从 16日的 12点(UTC)到 16日的 17点(UTC)
能見度: 4000
高吹尘

TAF: OKBK 161045Z 1612/1718 34015G25KT 7000 NSC TEMPO 1612/1617 4000 BLDU

超过4000个机场的气象观测和天气预报(METAR&TAF报告)。

可查询的气象台以黄色和红色小点在地图上表示。

将鼠标移到小点上方,可查看气象台名称。

然后点击查看天气观测和预报。

如需切换地图:点击带黑十字的绿色按钮放大地图;点击带横线的绿色按钮缩小地图;或者点击绿色箭头查看邻近地区的地图。


METAR-TAF: